Time;durP1;ratioP1;P1;durP2;ratioP2;P2;SDS_P1;SDS_P2;PMS_P1;PMS_P2;Temp;Humidity;BMP_temperature;BMP_pressure;BME280_temperature;BME280_humidity;BME280_pressure;Samples;Min_cycle;Max_cycle;Signal;HPM_P1;HPM_P2
2021/04/16 00:02:10;;;;;;;;;;;;;;;;;;6176788;23;786;-57
2021/04/16 00:04:35;;;;;;;;;;;;;;;;;;6175612;23;933;-57
2021/04/16 00:07:01;;;;;;;;;;;;;;;;;;6175662;23;1925;-57
2021/04/16 00:09:26;;;;;;;;;;;;;;;;;;6175652;23;794;-56
2021/04/16 00:11:52;;;;;;;;;;;;;;;;;;6176125;23;893;-56
2021/04/16 00:14:18;;;;;;;;;;;;;;;;;;6176080;23;889;-56
2021/04/16 00:16:43;;;;;;;;;;;;;;;;;;6177201;23;794;-56
2021/04/16 00:19:09;;;;;;;;;;;;;;;;;;6175748;23;861;-56
2021/04/16 00:21:35;;;;;;;;;;;;;;;;;;6176100;23;862;-56
2021/04/16 00:24:00;;;;;;;;;;;;;;;;;;6176245;23;841;-56
2021/04/16 00:26:26;;;;;;;;;;;;;;;;;;6175913;23;1962;-57
2021/04/16 00:28:51;;;;;;;;;;;;;;;;;;6175727;23;838;-56
2021/04/16 00:31:19;;;;;;;;;;;;;;;;;;6175936;23;894;-57
2021/04/16 00:33:45;;;;;;;;;;;;;;;;;;6176686;23;787;-56
2021/04/16 00:36:12;;;;;;;;;;;;;;;;;;6176816;23;782;-56
2021/04/16 00:38:37;;;;;;;;;;;;;;;;;;6175312;23;858;-56
2021/04/16 00:41:06;;;;;;;;;;;;;;;;;;6175741;23;822;-56
2021/04/16 00:43:33;;;;;;;;;;;;;;;;;;6177849;23;798;-56
2021/04/16 00:46:08;;;;;;;;;;;;;;;;;;6175792;23;1918;-56
2021/04/16 00:48:35;;;;;;;;;;;;;;;;;;6175707;23;802;-56
2021/04/16 00:51:02;;;;;;;;;;;;;;;;;;6175767;23;857;-55
2021/04/16 00:53:28;;;;;;;;;;;;;;;;;;6175480;23;782;-56
2021/04/16 00:55:54;;;;;;;;;;;;;;;;;;6175411;23;842;-55
2021/04/16 00:58:21;;;;;;;;;;;;;;;;;;6175386;23;885;-57
2021/04/16 01:00:47;;;;;;;;;;;;;;;;;;6175832;23;822;-56
2021/04/16 01:03:13;;;;;;;;;;;;;;;;;;6176322;23;782;-56
2021/04/16 01:05:38;;;;;;;;;;;;;;;;;;6175520;23;1877;-55
2021/04/16 01:08:05;;;;;;;;;;;;;;;;;;6175229;23;936;-55
2021/04/16 01:10:30;;;;;;;;;;;;;;;;;;6176512;23;818;-56
2021/04/16 01:12:55;;;;;;;;;;;;;;;;;;6177840;23;802;-55
2021/04/16 01:15:28;;;;;;;;;;;;;;;;;;6177410;23;803;-55
2021/04/16 01:17:56;;;;;;;;;;;;;;;;;;6177691;23;850;-55
2021/04/16 01:20:26;;;;;;;;;;;;;;;;;;6177421;23;798;-55
2021/04/16 01:22:55;;;;;;;;;;;;;;;;;;6178016;23;861;-55
2021/04/16 01:25:21;;;;;;;;;;;;;;;;;;6177701;23;1944;-56
2021/04/16 01:27:46;;;;;;;;;;;;;;;;;;6177002;23;838;-57
2021/04/16 01:30:15;;;;;;;;;;;;;;;;;;6178180;23;822;-56
2021/04/16 01:32:40;;;;;;;;;;;;;;;;;;6177744;23;814;-57
2021/04/16 01:35:09;;;;;;;;;;;;;;;;;;6177064;23;838;-56
2021/04/16 01:37:34;;;;;;;;;;;;;;;;;;6175701;23;1303;-56
2021/04/16 01:40:00;;;;;;;;;;;;;;;;;;6177372;23;814;-55
2021/04/16 01:42:25;;;;;;;;;;;;;;;;;;6179075;23;846;-56
2021/04/16 01:44:50;;;;;;;;;;;;;;;;;;6178293;23;865;-55
2021/04/16 01:47:17;;;;;;;;;;;;;;;;;;6176949;23;1901;-56
2021/04/16 01:49:44;;;;;;;;;;;;;;;;;;6178159;23;873;-56
2021/04/16 01:52:14;;;;;;;;;;;;;;;;;;6177523;23;805;-56
2021/04/16 01:54:40;;;;;;;;;;;;;;;;;;6177284;23;834;-56
2021/04/16 01:57:06;;;;;;;;;;;;;;;;;;6176131;23;822;-56
2021/04/16 01:59:33;;;;;;;;;;;;;;;;;;6176904;23;798;-56
2021/04/16 02:01:59;;;;;;;;;;;;;;;;;;6176328;23;786;-56
2021/04/16 02:04:24;;;;;;;;;;;;;;;;;;6176632;23;901;-56
2021/04/16 02:06:50;;;;;;;;;;;;;;;;;;6176541;23;1896;-55
2021/04/16 02:09:17;;;;;;;;;;;;;;;;;;6176752;23;821;-56
2021/04/16 02:11:43;;;;;;;;;;;;;;;;;;6177253;23;877;-57
2021/04/16 02:14:11;;;;;;;;;;;;;;;;;;6177211;23;845;-56
2021/04/16 02:16:36;;;;;;;;;;;;;;;;;;6176975;23;889;-57
2021/04/16 02:19:02;;;;;;;;;;;;;;;;;;6177123;23;853;-56
2021/04/16 02:21:27;;;;;;;;;;;;;;;;;;6176812;23;834;-56
2021/04/16 02:23:53;;;;;;;;;;;;;;;;;;6177204;23;833;-57
2021/04/16 02:26:18;;;;;;;;;;;;;;;;;;6176754;23;1930;-56
2021/04/16 02:28:43;;;;;;;;;;;;;;;;;;6178138;23;846;-55
2021/04/16 02:31:09;;;;;;;;;;;;;;;;;;6177242;23;869;-56
2021/04/16 02:33:34;;;;;;;;;;;;;;;;;;6177043;23;822;-56
2021/04/16 02:35:59;;;;;;;;;;;;;;;;;;6175058;23;850;-56
2021/04/16 02:38:25;;;;;;;;;;;;;;;;;;6176786;23;794;-56
2021/04/16 02:40:50;;;;;;;;;;;;;;;;;;6176439;23;865;-56
2021/04/16 02:43:18;;;;;;;;;;;;;;;;;;6177562;23;877;-56
2021/04/16 02:45:43;;;;;;;;;;;;;;;;;;6178523;23;1924;-57
2021/04/16 02:48:08;;;;;;;;;;;;;;;;;;6176071;23;786;-56
2021/04/16 02:50:34;;;;;;;;;;;;;;;;;;6176557;23;794;-57
2021/04/16 02:52:59;;;;;;;;;;;;;;;;;;6176430;23;873;-56
2021/04/16 02:55:25;;;;;;;;;;;;;;;;;;6175979;23;810;-55
2021/04/16 02:57:50;;;;;;;;;;;;;;;;;;6176488;23;774;-55
2021/04/16 03:00:18;;;;;;;;;;;;;;;;;;6176142;23;849;-55
2021/04/16 03:02:44;;;;;;;;;;;;;;;;;;6177296;23;1193;-56
2021/04/16 03:05:09;;;;;;;;;;;;;;;;;;6176573;23;1932;-56
2021/04/16 03:07:35;;;;;;;;;;;;;;;;;;6175979;23;905;-56
2021/04/16 03:10:00;;;;;;;;;;;;;;;;;;6174904;23;882;-56
2021/04/16 03:12:26;;;;;;;;;;;;;;;;;;6175802;23;842;-55
2021/04/16 03:14:51;;;;;;;;;;;;;;;;;;6175402;23;826;-56
2021/04/16 03:17:16;;;;;;;;;;;;;;;;;;6176250;23;929;-57
2021/04/16 03:19:42;;;;;;;;;;;;;;;;;;6177374;23;770;-56
2021/04/16 03:22:07;;;;;;;;;;;;;;;;;;6176110;23;803;-55
2021/04/16 03:24:33;;;;;;;;;;;;;;;;;;6175375;23;881;-56
2021/04/16 03:26:58;;;;;;;;;;;;;;;;;;6175765;23;1876;-56
2021/04/16 03:29:23;;;;;;;;;;;;;;;;;;6175630;23;798;-57
2021/04/16 03:31:49;;;;;;;;;;;;;;;;;;6176216;23;778;-56
2021/04/16 03:34:14;;;;;;;;;;;;;;;;;;6175332;23;1051;-56
2021/04/16 03:36:40;;;;;;;;;;;;;;;;;;6176484;23;909;-56
2021/04/16 03:39:05;;;;;;;;;;;;;;;;;;6175616;23;814;-56
2021/04/16 03:41:31;;;;;;;;;;;;;;;;;;6175959;23;846;-56
2021/04/16 03:43:56;;;;;;;;;;;;;;;;;;6176050;23;814;-56
2021/04/16 03:46:22;;;;;;;;;;;;;;;;;;6178346;23;1944;-56
2021/04/16 03:48:47;;;;;;;;;;;;;;;;;;6175760;23;833;-55
2021/04/16 03:51:13;;;;;;;;;;;;;;;;;;6177328;23;870;-55
2021/04/16 03:53:39;;;;;;;;;;;;;;;;;;6175094;23;826;-56
2021/04/16 03:56:06;;;;;;;;;;;;;;;;;;6175887;23;838;-56
2021/04/16 03:58:32;;;;;;;;;;;;;;;;;;6176012;23;920;-55
2021/04/16 04:00:57;;;;;;;;;;;;;;;;;;6175832;23;818;-55
2021/04/16 04:03:23;;;;;;;;;;;;;;;;;;6175086;23;826;-55
2021/04/16 04:05:48;;;;;;;;;;;;;;;;;;6175452;23;1881;-56
2021/04/16 04:08:14;;;;;;;;;;;;;;;;;;6176081;23;782;-56
2021/04/16 04:10:39;;;;;;;;;;;;;;;;;;6175730;23;778;-56
2021/04/16 04:13:09;;;;;;;;;;;;;;;;;;6175280;23;794;-56
2021/04/16 04:15:35;;;;;;;;;;;;;;;;;;6175077;23;863;-55
2021/04/16 04:18:01;;;;;;;;;;;;;;;;;;6175848;23;853;-56
2021/04/16 04:20:30;;;;;;;;;;;;;;;;;;6175999;23;841;-57
2021/04/16 04:22:55;;;;;;;;;;;;;;;;;;6175430;23;787;-56
2021/04/16 04:25:22;;;;;;;;;;;;;;;;;;6176161;23;1906;-57
2021/04/16 04:27:47;;;;;;;;;;;;;;;;;;6175668;23;838;-57
2021/04/16 04:30:13;;;;;;;;;;;;;;;;;;6175611;23;842;-57
2021/04/16 04:32:38;;;;;;;;;;;;;;;;;;6176334;23;818;-57
2021/04/16 04:35:04;;;;;;;;;;;;;;;;;;6175598;23;873;-56
2021/04/16 04:37:29;;;;;;;;;;;;;;;;;;6175474;23;881;-56
2021/04/16 04:39:55;;;;;;;;;;;;;;;;;;6175754;23;803;-57
2021/04/16 04:42:20;;;;;;;;;;;;;;;;;;6176222;23;791;-57
2021/04/16 04:44:46;;;;;;;;;;;;;;;;;;6176292;23;869;-56
2021/04/16 04:47:11;;;;;;;;;;;;;;;;;;6180872;23;1868;-56
2021/04/16 04:49:37;;;;;;;;;;;;;;;;;;6176863;23;802;-56
2021/04/16 04:52:19;;;;;;;;;;;;;;;;;;6177728;23;829;-57
2021/04/16 04:54:49;;;;;;;;;;;;;;;;;;6178361;23;877;-56
2021/04/16 04:57:15;;;;;;;;;;;;;;;;;;6178486;23;869;-56
2021/04/16 04:59:41;;;;;;;;;;;;;;;;;;6178829;23;897;-57
2021/04/16 05:02:07;;;;;;;;;;;;;;;;;;6177641;23;981;-57
2021/04/16 05:04:32;;;;;;;;;;;;;;;;;;6176999;23;882;-56
2021/04/16 05:06:57;;;;;;;;;;;;;;;;;;6177465;23;1884;-56
2021/04/16 05:09:23;;;;;;;;;;;;;;;;;;6177724;23;843;-56
2021/04/16 05:11:48;;;;;;;;;;;;;;;;;;6177466;23;790;-56
2021/04/16 05:14:13;;;;;;;;;;;;;;;;;;6178688;23;826;-56
2021/04/16 05:16:39;;;;;;;;;;;;;;;;;;6176863;23;837;-57
2021/04/16 05:19:04;;;;;;;;;;;;;;;;;;6175913;23;790;-57
2021/04/16 05:21:30;;;;;;;;;;;;;;;;;;6177000;23;834;-56
2021/04/16 05:23:56;;;;;;;;;;;;;;;;;;6177707;23;837;-57
2021/04/16 05:26:22;;;;;;;;;;;;;;;;;;6177202;23;1940;-57
2021/04/16 05:28:47;;;;;;;;;;;;;;;;;;6177684;23;834;-57
2021/04/16 05:31:12;;;;;;;;;;;;;;;;;;6178450;23;789;-56
2021/04/16 05:33:38;;;;;;;;;;;;;;;;;;6176243;23;885;-57
2021/04/16 05:36:03;;;;;;;;;;;;;;;;;;6176721;23;857;-57
2021/04/16 05:38:29;;;;;;;;;;;;;;;;;;6176928;23;830;-56
2021/04/16 05:40:54;;;;;;;;;;;;;;;;;;6177457;23;802;-56
2021/04/16 05:43:19;;;;;;;;;;;;;;;;;;6177106;23;829;-56
2021/04/16 05:45:45;;;;;;;;;;;;;;;;;;6177304;23;1877;-57
2021/04/16 05:48:10;;;;;;;;;;;;;;;;;;6178030;23;822;-56
2021/04/16 05:50:36;;;;;;;;;;;;;;;;;;6177669;23;913;-56
2021/04/16 05:53:02;;;;;;;;;;;;;;;;;;6176972;23;849;-56
2021/04/16 05:55:28;;;;;;;;;;;;;;;;;;6176904;23;798;-57
2021/04/16 05:57:53;;;;;;;;;;;;;;;;;;6176718;23;822;-56
2021/04/16 06:00:19;;;;;;;;;;;;;;;;;;6176921;23;798;-57
2021/04/16 06:02:45;;;;;;;;;;;;;;;;;;6177317;23;798;-56
2021/04/16 06:05:12;;;;;;;;;;;;;;;;;;6178183;23;1931;-55
2021/04/16 06:07:37;;;;;;;;;;;;;;;;;;6177093;23;830;-56
2021/04/16 06:10:05;;;;;;;;;;;;;;;;;;6176775;23;834;-57
2021/04/16 06:12:30;;;;;;;;;;;;;;;;;;6176929;23;811;-57
2021/04/16 06:14:56;;;;;;;;;;;;;;;;;;6175358;23;807;-57
2021/04/16 06:17:21;;;;;;;;;;;;;;;;;;6176718;23;865;-56
2021/04/16 06:19:48;;;;;;;;;;;;;;;;;;6177296;23;865;-56
2021/04/16 06:22:15;;;;;;;;;;;;;;;;;;6178400;23;798;-56
2021/04/16 06:24:40;;;;;;;;;;;;;;;;;;6178787;23;854;-57
2021/04/16 06:27:06;;;;;;;;;;;;;;;;;;6176936;23;1868;-56
2021/04/16 06:29:31;;;;;;;;;;;;;;;;;;6177007;23;848;-56
2021/04/16 06:31:57;;;;;;;;;;;;;;;;;;6176760;23;842;-56
2021/04/16 06:34:23;;;;;;;;;;;;;;;;;;6177544;23;837;-56
2021/04/16 06:36:48;;;;;;;;;;;;;;;;;;6176894;23;838;-57
2021/04/16 06:39:14;;;;;;;;;;;;;;;;;;6178046;23;802;-59
2021/04/16 06:41:40;;;;;;;;;;;;;;;;;;6176415;23;850;-58
2021/04/16 06:44:19;;;;;;;;;;;;;;;;;;6177066;23;1079;-57
2021/04/16 06:46:46;;;;;;;;;;;;;;;;;;6177196;23;1877;-58
2021/04/16 06:49:11;;;;;;;;;;;;;;;;;;6177957;23;798;-58
2021/04/16 06:51:55;;;;;;;;;;;;;;;;;;6176389;23;854;-59
2021/04/16 06:54:24;;;;;;;;;;;;;;;;;;6176658;23;802;-57
2021/04/16 06:56:51;;;;;;;;;;;;;;;;;;6176799;23;902;-57
2021/04/16 06:59:27;;;;;;;;;;;;;;;;;;6176686;23;878;-60
2021/04/16 07:01:53;;;;;;;;;;;;;;;;;;6176190;23;862;-58
2021/04/16 07:04:24;;;;;;;;;;;;;;;;;;6176208;23;806;-59
2021/04/16 07:06:52;;;;;;;;;;;;;;;;;;6176571;23;1928;-57
2021/04/16 07:09:25;;;;;;;;;;;;;;;;;;6176205;23;858;-58
2021/04/16 07:11:55;;;;;;;;;;;;;;;;;;6176560;23;925;-58
2021/04/16 07:14:29;;;;;;;;;;;;;;;;;;6176655;23;834;-57
2021/04/16 07:16:55;;;;;;;;;;;;;;;;;;6175247;23;917;-57
2021/04/16 07:19:22;;;;;;;;;;;;;;;;;;6176844;23;928;-58
2021/04/16 07:21:48;;;;;;;;;;;;;;;;;;6176104;23;786;-59
2021/04/16 07:24:15;;;;;;;;;;;;;;;;;;6177874;23;865;-58
2021/04/16 07:26:42;;;;;;;;;;;;;;;;;;6177644;23;1912;-59
2021/04/16 07:29:09;;;;;;;;;;;;;;;;;;6174769;23;1289;-58
2021/04/16 07:31:47;;;;;;;;;;;;;;;;;;6176074;23;786;-59
2021/04/16 07:34:27;;;;;;;;;;;;;;;;;;6177805;23;798;-59
2021/04/16 07:36:53;;;;;;;;;;;;;;;;;;6176513;23;797;-58
2021/04/16 07:39:18;;;;;;;;;;;;;;;;;;6176564;23;798;-58
2021/04/16 07:41:45;;;;;;;;;;;;;;;;;;6176799;23;810;-58
2021/04/16 07:44:18;;;;;;;;;;;;;;;;;;6177778;23;858;-58
2021/04/16 07:46:47;;;;;;;;;;;;;;;;;;6177295;23;1865;-58
2021/04/16 07:49:13;;;;;;;;;;;;;;;;;;6177614;23;814;-58
2021/04/16 07:51:39;;;;;;;;;;;;;;;;;;6176270;23;838;-57
2021/04/16 07:54:20;;;;;;;;;;;;;;;;;;6176813;23;841;-58
2021/04/16 07:56:46;;;;;;;;;;;;;;;;;;6176807;23;846;-58
2021/04/16 07:59:14;;;;;;;;;;;;;;;;;;6177518;23;790;-58
2021/04/16 08:01:47;;;;;;;;;;;;;;;;;;6174346;23;981;-58
2021/04/16 08:04:29;;;;;;;;;;;;;;;;;;6177125;23;917;-57
2021/04/16 08:07:07;;;;;;;;;;;;;;;;;;6176292;23;1933;-58
2021/04/16 08:09:34;;;;;;;;;;;;;;;;;;6176261;23;802;-58
2021/04/16 08:12:02;;;;;;;;;;;;;;;;;;6176417;23;858;-57
2021/04/16 08:14:34;;;;;;;;;;;;;;;;;;6176483;23;870;-58
2021/04/16 08:17:01;;;;;;;;;;;;;;;;;;6176095;23;834;-58
2021/04/16 08:19:29;;;;;;;;;;;;;;;;;;6175352;23;921;-58
2021/04/16 08:22:15;;;;;;;;;;;;;;;;;;6175245;23;810;-58
2021/04/16 08:24:40;;;;;;;;;;;;;;;;;;6176445;23;1061;-58
2021/04/16 08:27:11;;;;;;;;;;;;;;;;;;6176184;23;1873;-58
2021/04/16 08:29:41;;;;;;;;;;;;;;;;;;6176416;23;866;-58
2021/04/16 08:32:16;;;;;;;;;;;;;;;;;;6175987;23;834;-58
2021/04/16 08:34:44;;;;;;;;;;;;;;;;;;6174893;23;886;-59
2021/04/16 08:37:14;;;;;;;;;;;;;;;;;;6175921;23;814;-59
2021/04/16 08:39:42;;;;;;;;;;;;;;;;;;6177192;23;883;-58
2021/04/16 08:42:12;;;;;;;;;;;;;;;;;;6176289;23;851;-57
2021/04/16 08:44:40;;;;;;;;;;;;;;;;;;6176081;23;806;-57
2021/04/16 08:47:07;;;;;;;;;;;;;;;;;;6175978;23;1914;-59
2021/04/16 08:49:34;;;;;;;;;;;;;;;;;;6174897;23;1278;-57
2021/04/16 08:52:05;;;;;;;;;;;;;;;;;;6176224;23;869;-58
2021/04/16 08:54:32;;;;;;;;;;;;;;;;;;6174315;23;811;-59
2021/04/16 08:57:01;;;;;;;;;;;;;;;;;;6176108;23;842;-59
2021/04/16 08:59:32;;;;;;;;;;;;;;;;;;6175560;23;809;-59
2021/04/16 09:02:06;;;;;;;;;;;;;;;;;;6175958;23;830;-57
2021/04/16 09:04:31;;;;;;;;;;;;;;;;;;6175835;23;796;-56
2021/04/16 09:06:58;;;;;;;;;;;;;;;;;;6174555;23;1877;-57
2021/04/16 09:09:39;;;;;;;;;;;;;;;;;;6176593;23;803;-59
2021/04/16 09:12:04;;;;;;;;;;;;;;;;;;6176300;23;782;-59
2021/04/16 09:14:30;;;;;;;;;;;;;;;;;;6176474;23;631;-60
2021/04/16 09:16:56;;;;;;;;;;;;;;;;;;6176189;23;774;-60
2021/04/16 09:19:25;;;;;;;;;;;;;;;;;;6174806;23;829;-59
2021/04/16 09:22:06;;;;;;;;;;;;;;;;;;6173204;23;904;-59
2021/04/16 09:24:49;;;;;;;;;;;;;;;;;;6175308;23;810;-60
2021/04/16 09:27:35;;;;;;;;;;;;;;;;;;6176106;23;1919;-60
2021/04/16 09:30:06;;;;;;;;;;;;;;;;;;6175374;23;885;-57
2021/04/16 09:32:32;;;;;;;;;;;;;;;;;;6176684;23;822;-57
2021/04/16 09:34:58;;;;;;;;;;;;;;;;;;6176770;23;869;-59
2021/04/16 09:37:43;;;;;;;;;;;;;;;;;;6177255;23;822;-57
2021/04/16 09:40:08;;;;;;;;;;;;;;;;;;6177664;23;791;-58
2021/04/16 09:42:36;;;;;;;;;;;;;;;;;;6177501;23;802;-57
2021/04/16 09:45:03;;;;;;;;;;;;;;;;;;6177419;23;770;-58
2021/04/16 09:47:48;;;;;;;;;;;;;;;;;;6177661;23;1901;-57
2021/04/16 09:50:22;;;;;;;;;;;;;;;;;;6177170;23;854;-57
2021/04/16 09:52:50;;;;;;;;;;;;;;;;;;6177374;23;958;-57
2021/04/16 09:55:34;;;;;;;;;;;;;;;;;;6177113;23;880;-60
2021/04/16 09:57:59;;;;;;;;;;;;;;;;;;6176895;23;861;-58
2021/04/16 10:01:00;;;;;;;;;;;;;;;;;;6176244;23;1016;-58
2021/04/16 10:03:43;;;;;;;;;;;;;;;;;;6177018;23;1075;-56
2021/04/16 10:06:20;;;;;;;;;;;;;;;;;;6176359;23;1885;-58
2021/04/16 10:08:45;;;;;;;;;;;;;;;;;;6176796;23;866;-59
2021/04/16 10:11:12;;;;;;;;;;;;;;;;;;6178054;23;807;-56
2021/04/16 10:13:41;;;;;;;;;;;;;;;;;;6177055;23;775;-56
2021/04/16 10:16:22;;;;;;;;;;;;;;;;;;6177048;23;850;-58
2021/04/16 10:18:48;;;;;;;;;;;;;;;;;;6176529;23;849;-59
2021/04/16 10:21:21;;;;;;;;;;;;;;;;;;6179532;23;885;-58
2021/04/16 12:40:17;;;;;;;;;;;;;;;;;;6174577;23;655;-57
2021/04/16 12:42:42;;;;;;;;;;;;;;;;;;6175831;23;881;-57
2021/04/16 12:45:08;;;;;;;;;;;;;;;;;;6174115;23;791;-58
2021/04/16 12:47:34;;;;;;;;;;;;;;;;;;6173673;23;1910;-57
2021/04/16 12:50:00;;;;;;;;;;;;;;;;;;6174864;23;849;-59
2021/04/16 12:52:25;;;;;;;;;;;;;;;;;;6174694;23;854;-59
2021/04/16 12:54:52;;;;;;;;;;;;;;;;;;6176166;23;854;-57
2021/04/16 12:57:24;;;;;;;;;;;;;;;;;;6176195;23;830;-57
2021/04/16 12:59:50;;;;;;;;;;;;;;;;;;6176327;23;845;-56
2021/04/16 13:02:23;;;;;;;;;;;;;;;;;;6176804;23;877;-57
2021/04/16 13:04:49;;;;;;;;;;;;;;;;;;6175671;23;841;-57
2021/04/16 13:07:15;;;;;;;;;;;;;;;;;;6178609;23;1934;-60
2021/04/16 13:09:40;;;;;;;;;;;;;;;;;;6178714;23;794;-57
2021/04/16 13:12:06;;;;;;;;;;;;;;;;;;6177967;23;794;-58
2021/04/16 13:14:31;;;;;;;;;;;;;;;;;;6175898;23;1329;-60
2021/04/16 13:16:57;;;;;;;;;;;;;;;;;;6175093;23;873;-60
2021/04/16 13:19:29;;;;;;;;;;;;;;;;;;6176428;23;869;-61
2021/04/16 13:22:02;;;;;;;;;;;;;;;;;;6173703;23;866;-62
2021/04/16 13:24:27;;;;;;;;;;;;;;;;;;6174517;23;841;-60
2021/04/16 13:26:53;;;;;;;;;;;;;;;;;;6177098;23;1869;-59
2021/04/16 13:29:18;;;;;;;;;;;;;;;;;;6176758;23;853;-59
2021/04/16 13:31:43;;;;;;;;;;;;;;;;;;6179017;23;786;-58
2021/04/16 13:34:10;;;;;;;;;;;;;;;;;;6176418;23;838;-60
2021/04/16 13:36:35;;;;;;;;;;;;;;;;;;6178030;23;857;-59
2021/04/16 13:39:03;;;;;;;;;;;;;;;;;;6175847;23;810;-57
2021/04/16 13:41:28;;;;;;;;;;;;;;;;;;6177478;23;1229;-58
2021/04/16 13:43:54;;;;;;;;;;;;;;;;;;6177079;23;870;-58
2021/04/16 13:46:25;;;;;;;;;;;;;;;;;;6177002;23;1872;-60
2021/04/16 13:48:51;;;;;;;;;;;;;;;;;;6177126;23;818;-57
2021/04/16 13:51:18;;;;;;;;;;;;;;;;;;6174736;23;872;-57
2021/04/16 13:53:44;;;;;;;;;;;;;;;;;;6177947;23;805;-57
2021/04/16 13:56:09;;;;;;;;;;;;;;;;;;6175905;23;1088;-57
2021/04/16 13:58:35;;;;;;;;;;;;;;;;;;6176917;23;787;-58
2021/04/16 14:01:01;;;;;;;;;;;;;;;;;;6177110;23;850;-59
2021/04/16 14:03:37;;;;;;;;;;;;;;;;;;6176054;23;877;-59
2021/04/16 14:06:17;;;;;;;;;;;;;;;;;;6176545;23;1888;-59
2021/04/16 14:09:02;;;;;;;;;;;;;;;;;;6176915;23;814;-59
2021/04/16 14:11:31;;;;;;;;;;;;;;;;;;6174831;23;1121;-59
2021/04/16 14:13:57;;;;;;;;;;;;;;;;;;6176595;23;838;-59
2021/04/16 14:16:28;;;;;;;;;;;;;;;;;;6176942;23;822;-59
2021/04/16 14:18:55;;;;;;;;;;;;;;;;;;6175884;23;1277;-58
2021/04/16 14:21:20;;;;;;;;;;;;;;;;;;6177164;23;838;-58
2021/04/16 14:23:46;;;;;;;;;;;;;;;;;;6177786;23;866;-59
2021/04/16 14:26:12;;;;;;;;;;;;;;;;;;6177964;23;1918;-58
2021/04/16 14:28:37;;;;;;;;;;;;;;;;;;6177673;23;818;-57
2021/04/16 14:31:04;;;;;;;;;;;;;;;;;;6177414;23;786;-58
2021/04/16 14:33:31;;;;;;;;;;;;;;;;;;6175220;23;846;-58
2021/04/16 14:35:57;;;;;;;;;;;;;;;;;;6176909;23;850;-58
2021/04/16 14:38:23;;;;;;;;;;;;;;;;;;6176518;23;774;-58
2021/04/16 14:40:48;;;;;;;;;;;;;;;;;;6176778;23;799;-58
2021/04/16 14:43:14;;;;;;;;;;;;;;;;;;6178251;23;861;-58
2021/04/16 14:45:42;;;;;;;;;;;;;;;;;;6176262;23;1907;-57
2021/04/16 14:48:08;;;;;;;;;;;;;;;;;;6177590;23;837;-58
2021/04/16 14:50:34;;;;;;;;;;;;;;;;;;6177145;23;774;-58
2021/04/16 14:53:01;;;;;;;;;;;;;;;;;;6176577;23;854;-58
2021/04/16 14:55:29;;;;;;;;;;;;;;;;;;6176924;23;866;-57
2021/04/16 14:57:56;;;;;;;;;;;;;;;;;;6175948;23;798;-58
2021/04/16 15:00:23;;;;;;;;;;;;;;;;;;6177168;23;826;-58
2021/04/16 15:02:49;;;;;;;;;;;;;;;;;;6174473;23;940;-59
2021/04/16 15:05:18;;;;;;;;;;;;;;;;;;6177305;23;901;-58
2021/04/16 15:07:48;;;;;;;;;;;;;;;;;;6177478;23;1885;-59
2021/04/16 15:10:19;;;;;;;;;;;;;;;;;;6177587;23;830;-58
2021/04/16 15:12:45;;;;;;;;;;;;;;;;;;6176206;23;775;-58
2021/04/16 15:15:34;;;;;;;;;;;;;;;;;;6177208;23;790;-58
2021/04/16 15:18:00;;;;;;;;;;;;;;;;;;6175877;23;814;-57
2021/04/16 15:20:26;;;;;;;;;;;;;;;;;;6175897;23;980;-57
2021/04/16 15:22:55;;;;;;;;;;;;;;;;;;6174339;23;948;-57
2021/04/16 15:25:24;;;;;;;;;;;;;;;;;;6176866;23;810;-57
2021/04/16 15:27:52;;;;;;;;;;;;;;;;;;6176778;23;838;-56
2021/04/16 15:30:21;;;;;;;;;;;;;;;;;;6176388;23;834;-57
2021/04/16 15:32:47;;;;;;;;;;;;;;;;;;6175666;23;842;-58
2021/04/16 15:46:10;;;;;;;;;;;;;;;;;;6176711;23;1865;-58
2021/04/16 15:48:37;;;;;;;;;;;;;;;;;;6175591;23;873;-58
2021/04/16 15:51:05;;;;;;;;;;;;;;;;;;6174197;23;829;-58
2021/04/16 15:53:30;;;;;;;;;;;;;;;;;;6175911;23;826;-58
2021/04/16 15:55:56;;;;;;;;;;;;;;;;;;6176078;23;854;-58
2021/04/16 15:58:28;;;;;;;;;;;;;;;;;;6174312;23;869;-58
2021/04/16 16:00:55;;;;;;;;;;;;;;;;;;6175956;23;838;-60
2021/04/16 16:03:21;;;;;;;;;;;;;;;;;;6176166;23;806;-58
2021/04/16 16:05:47;;;;;;;;;;;;;;;;;;6175342;23;1930;-58
2021/04/16 16:08:13;;;;;;;;;;;;;;;;;;6177056;23;817;-58
2021/04/16 16:10:40;;;;;;;;;;;;;;;;;;6175561;23;1105;-59
2021/04/16 16:13:09;;;;;;;;;;;;;;;;;;6175622;23;806;-59
2021/04/16 16:15:37;;;;;;;;;;;;;;;;;;6176279;23;802;-59
2021/04/16 16:18:04;;;;;;;;;;;;;;;;;;6173963;23;1316;-59
2021/04/16 16:20:31;;;;;;;;;;;;;;;;;;6175515;23;1107;-59
2021/04/16 16:23:00;;;;;;;;;;;;;;;;;;6176045;23;869;-59
2021/04/16 16:25:27;;;;;;;;;;;;;;;;;;6176243;23;1897;-59
2021/04/16 16:27:57;;;;;;;;;;;;;;;;;;6174821;23;865;-59
2021/04/16 16:30:24;;;;;;;;;;;;;;;;;;6175235;23;818;-59
2021/04/16 16:32:50;;;;;;;;;;;;;;;;;;6176110;23;825;-59
2021/04/16 16:35:18;;;;;;;;;;;;;;;;;;6176771;23;858;-59
2021/04/16 16:37:43;;;;;;;;;;;;;;;;;;6176137;23;813;-59
2021/04/16 16:40:11;;;;;;;;;;;;;;;;;;6175387;23;793;-59
2021/04/16 16:42:39;;;;;;;;;;;;;;;;;;6175788;23;1085;-59
2021/04/16 16:45:09;;;;;;;;;;;;;;;;;;6177882;23;894;-59
2021/04/16 16:47:35;;;;;;;;;;;;;;;;;;6177887;23;1946;-59
2021/04/16 16:50:01;;;;;;;;;;;;;;;;;;6176099;23;1154;-59
2021/04/16 16:52:26;;;;;;;;;;;;;;;;;;6177896;23;803;-59
2021/04/16 16:54:52;;;;;;;;;;;;;;;;;;6177689;23;957;-59
2021/04/16 16:57:18;;;;;;;;;;;;;;;;;;6177360;23;873;-59
2021/04/16 16:59:44;;;;;;;;;;;;;;;;;;6176466;23;852;-59
2021/04/16 17:02:11;;;;;;;;;;;;;;;;;;6177507;23;731;-59
2021/04/16 17:04:37;;;;;;;;;;;;;;;;;;6177485;23;831;-59
2021/04/16 17:07:02;;;;;;;;;;;;;;;;;;6177707;23;1916;-59
2021/04/16 17:09:28;;;;;;;;;;;;;;;;;;6177512;23;802;-59
2021/04/16 17:11:53;;;;;;;;;;;;;;;;;;6176504;23;865;-59
2021/04/16 17:14:24;;;;;;;;;;;;;;;;;;6177068;23;810;-59
2021/04/16 17:16:49;;;;;;;;;;;;;;;;;;6177240;23;786;-59
2021/04/16 17:19:14;;;;;;;;;;;;;;;;;;6178607;23;794;-59
2021/04/16 17:21:44;;;;;;;;;;;;;;;;;;6177403;23;627;-59
2021/04/16 17:24:12;;;;;;;;;;;;;;;;;;6176615;23;728;-61
2021/04/16 17:26:42;;;;;;;;;;;;;;;;;;6177050;23;1868;-59
2021/04/16 17:29:09;;;;;;;;;;;;;;;;;;6176713;23;1018;-58
2021/04/16 17:31:34;;;;;;;;;;;;;;;;;;6177432;23;849;-58
2021/04/16 17:34:00;;;;;;;;;;;;;;;;;;6177892;23;849;-58
2021/04/16 17:36:25;;;;;;;;;;;;;;;;;;6177751;23;885;-57
2021/04/16 17:38:51;;;;;;;;;;;;;;;;;;6176759;23;846;-58
2021/04/16 17:41:17;;;;;;;;;;;;;;;;;;6177533;23;850;-58
2021/04/16 17:43:44;;;;;;;;;;;;;;;;;;6178500;23;873;-58
2021/04/16 17:46:10;;;;;;;;;;;;;;;;;;6177361;23;1916;-58
2021/04/16 17:48:36;;;;;;;;;;;;;;;;;;6177593;23;798;-57
2021/04/16 17:51:03;;;;;;;;;;;;;;;;;;6177795;23;881;-58
2021/04/16 17:53:29;;;;;;;;;;;;;;;;;;6175767;23;1006;-58
2021/04/16 17:55:55;;;;;;;;;;;;;;;;;;6176956;23;767;-59
2021/04/16 17:58:31;;;;;;;;;;;;;;;;;;6176958;23;795;-61
2021/04/16 18:00:58;;;;;;;;;;;;;;;;;;6177412;23;786;-58
2021/04/16 18:03:23;;;;;;;;;;;;;;;;;;6176396;23;813;-58
2021/04/16 18:05:49;;;;;;;;;;;;;;;;;;6176174;23;1885;-59
2021/04/16 18:08:15;;;;;;;;;;;;;;;;;;6177425;23;826;-58
2021/04/16 18:10:41;;;;;;;;;;;;;;;;;;6176805;23;810;-58
2021/04/16 18:13:07;;;;;;;;;;;;;;;;;;6177714;23;786;-59
2021/04/16 18:15:33;;;;;;;;;;;;;;;;;;6175612;23;908;-58
2021/04/16 18:18:00;;;;;;;;;;;;;;;;;;6177295;23;799;-59
2021/04/16 18:20:31;;;;;;;;;;;;;;;;;;6177421;23;782;-58
2021/04/16 18:22:57;;;;;;;;;;;;;;;;;;6176323;23;798;-59
2021/04/16 18:25:26;;;;;;;;;;;;;;;;;;6175335;23;882;-59
2021/04/16 18:27:51;;;;;;;;;;;;;;;;;;6176822;23;1877;-59
2021/04/16 18:30:26;;;;;;;;;;;;;;;;;;6176565;23;779;-60
2021/04/16 18:32:51;;;;;;;;;;;;;;;;;;6176839;23;929;-59
2021/04/16 18:35:17;;;;;;;;;;;;;;;;;;6176499;23;770;-60
2021/04/16 18:37:43;;;;;;;;;;;;;;;;;;6177026;23;849;-59
2021/04/16 18:40:25;;;;;;;;;;;;;;;;;;6174678;23;818;-59
2021/04/16 18:42:51;;;;;;;;;;;;;;;;;;6175771;23;825;-59
2021/04/16 18:45:16;;;;;;;;;;;;;;;;;;6177630;23;845;-59
2021/04/16 18:47:42;;;;;;;;;;;;;;;;;;6179238;23;1928;-59
2021/04/16 18:50:10;;;;;;;;;;;;;;;;;;6177137;23;850;-59
2021/04/16 18:52:39;;;;;;;;;;;;;;;;;;6176043;23;1087;-59
2021/04/16 18:55:07;;;;;;;;;;;;;;;;;;6176416;23;892;-59
2021/04/16 18:57:32;;;;;;;;;;;;;;;;;;6176814;23;822;-59
2021/04/16 18:59:58;;;;;;;;;;;;;;;;;;6176922;23;802;-59
2021/04/16 19:02:23;;;;;;;;;;;;;;;;;;6176731;23;889;-59
2021/04/16 19:04:49;;;;;;;;;;;;;;;;;;6174821;23;924;-59
2021/04/16 19:07:16;;;;;;;;;;;;;;;;;;6176944;23;1909;-58
2021/04/16 19:09:46;;;;;;;;;;;;;;;;;;6177576;23;873;-59
2021/04/16 19:12:12;;;;;;;;;;;;;;;;;;6177531;23;850;-59
2021/04/16 19:14:39;;;;;;;;;;;;;;;;;;6175403;23;807;-59
2021/04/16 19:17:09;;;;;;;;;;;;;;;;;;6173629;23;1245;-59
2021/04/16 19:19:35;;;;;;;;;;;;;;;;;;6175577;23;778;-59
2021/04/16 19:22:02;;;;;;;;;;;;;;;;;;6175435;23;897;-59
2021/04/16 19:24:34;;;;;;;;;;;;;;;;;;6175640;23;842;-59
2021/04/16 19:27:00;;;;;;;;;;;;;;;;;;6173918;23;1876;-59
2021/04/16 19:29:26;;;;;;;;;;;;;;;;;;6175483;23;1567;-59
2021/04/16 19:31:53;;;;;;;;;;;;;;;;;;6175528;23;913;-59
2021/04/16 19:34:19;;;;;;;;;;;;;;;;;;6176083;23;865;-59
2021/04/16 19:36:46;;;;;;;;;;;;;;;;;;6176908;23;882;-59
2021/04/16 19:39:17;;;;;;;;;;;;;;;;;;6177625;23;807;-59
2021/04/16 19:41:43;;;;;;;;;;;;;;;;;;6177431;23;881;-59
2021/04/16 19:44:08;;;;;;;;;;;;;;;;;;6176355;23;823;-59
2021/04/16 19:46:34;;;;;;;;;;;;;;;;;;6176122;23;1881;-59
2021/04/16 20:06:22;;;;;;;;;;;;;;;;;;6165239;23;973;-57